createdAt,value
2023-05-01T00:00:12.351Z,4.55
2023-05-01T00:02:14.193Z,8.43
2023-05-01T00:04:17.143Z,5.55
2023-05-01T00:06:18.957Z,5.43
2023-05-01T00:08:20.578Z,4.88
2023-05-01T00:10:22.162Z,6.45
2023-05-01T00:12:24.240Z,6.43
2023-05-01T00:14:25.971Z,5.57
2023-05-01T00:16:27.637Z,5.50
2023-05-01T00:18:32.433Z,6.65
2023-05-01T00:20:34.005Z,8.50
2023-05-01T00:22:35.603Z,8.95
2023-05-01T00:24:37.453Z,5.35
2023-05-01T00:26:39.292Z,6.75
2023-05-01T00:28:40.865Z,6.15
2023-05-01T00:30:42.565Z,5.82
2023-05-01T00:32:44.282Z,6.68
2023-05-01T00:34:47.796Z,5.32
2023-05-01T00:36:50.012Z,7.53
2023-05-01T00:38:52.470Z,6.18
2023-05-01T00:40:54.081Z,6.07
2023-05-01T00:42:56.731Z,5.50
2023-05-01T00:44:58.674Z,9.57
2023-05-01T00:47:02.350Z,5.78
2023-05-01T00:49:04.323Z,5.65
2023-05-01T00:51:07.686Z,7.20
2023-05-01T00:53:09.371Z,5.75
2023-05-01T00:55:12.518Z,7.90
2023-05-01T00:57:15.322Z,6.13
2023-05-01T00:59:17.092Z,6.25
2023-05-01T01:01:19.725Z,5.78
2023-05-01T01:03:21.679Z,6.65
2023-05-01T01:05:25.968Z,6.53
2023-05-01T01:07:37.309Z,7.93
2023-05-01T01:09:51.021Z,8.07
2023-05-01T01:12:14.565Z,6.55
2023-05-01T01:14:20.084Z,6.32
2023-05-01T01:16:31.133Z,6.40
2023-05-01T01:18:32.959Z,7.60
2023-05-01T01:20:49.888Z,5.47
2023-05-01T01:23:00.565Z,5.82
2023-05-01T01:25:17.573Z,5.50
2023-05-01T01:27:46.675Z,6.25
2023-05-01T01:30:07.194Z,9.27
2023-05-01T01:32:17.605Z,5.80
2023-05-01T01:34:40.520Z,6.35
2023-05-01T01:36:44.910Z,7.78
2023-05-01T01:38:47.465Z,5.90
2023-05-01T01:41:20.454Z,5.85
2023-05-01T01:43:23.382Z,8.18
2023-05-01T01:45:36.895Z,7.67
2023-05-01T01:47:41.777Z,5.95
2023-05-01T01:49:47.307Z,6.35
2023-05-01T01:51:50.376Z,8.20
2023-05-01T01:53:54.150Z,7.68
2023-05-01T01:55:57.476Z,6.28
2023-05-01T01:57:59.876Z,7.47
2023-05-01T02:00:01.506Z,11.07
2023-05-01T02:02:04.287Z,7.38
2023-05-01T02:04:07.472Z,7.13
2023-05-01T02:06:10.680Z,7.05
2023-05-01T02:08:13.528Z,10.82
2023-05-01T02:10:16.300Z,6.20
2023-05-01T02:12:18.587Z,8.05
2023-05-01T02:14:20.600Z,6.00
2023-05-01T02:16:25.381Z,7.10
2023-05-01T02:18:29.705Z,5.88
2023-05-01T02:20:31.433Z,9.77
2023-05-01T02:22:33.706Z,7.10
2023-05-01T02:24:36.090Z,9.48
2023-05-01T02:26:45.698Z,6.30
2023-05-01T02:28:47.425Z,7.53
2023-05-01T02:30:49.230Z,7.03
2023-05-01T02:32:50.895Z,9.02
2023-05-01T02:34:52.591Z,6.13
2023-05-01T02:36:54.193Z,10.05
2023-05-01T02:38:56.185Z,8.73
2023-05-01T02:40:58.637Z,7.85
2023-05-01T02:43:01.163Z,10.27
2023-05-01T02:45:04.709Z,7.40
2023-05-01T02:47:07.873Z,9.00
2023-05-01T02:49:09.681Z,8.00
2023-05-01T02:51:12.137Z,7.55
2023-05-01T02:53:15.743Z,8.70
2023-05-01T02:55:17.538Z,8.13
2023-05-01T02:57:20.481Z,8.45
2023-05-01T02:59:22.183Z,7.30
2023-05-01T03:01:24.328Z,9.70
2023-05-01T03:03:27.964Z,9.23
2023-05-01T03:05:29.605Z,10.13
2023-05-01T03:07:35.239Z,10.85
2023-05-01T03:09:37.170Z,8.77
2023-05-01T03:11:38.824Z,8.63
2023-05-01T03:13:40.393Z,8.40
2023-05-01T03:15:42.399Z,8.30
2023-05-01T03:17:44.154Z,8.73
2023-05-01T03:19:45.824Z,9.68
2023-05-01T03:21:47.489Z,10.05
2023-05-01T03:23:49.254Z,11.25
2023-05-01T03:25:51.396Z,12.63
2023-05-01T03:27:54.950Z,13.80
2023-05-01T03:31:59.167Z,13.00
2023-05-01T03:34:00.889Z,9.38
2023-05-01T03:36:04.262Z,10.48
2023-05-01T03:38:06.106Z,9.77
2023-05-01T03:40:08.456Z,9.98
2023-05-01T03:42:10.101Z,10.68
2023-05-01T03:44:11.732Z,12.80
2023-05-01T03:46:13.399Z,11.18
2023-05-01T03:48:15.082Z,12.93
2023-05-01T03:50:16.817Z,12.90
2023-05-01T03:52:18.468Z,13.38
2023-05-01T03:54:20.179Z,14.23
2023-05-01T03:56:21.852Z,11.98
2023-05-01T03:58:23.511Z,12.18
2023-05-01T04:00:25.294Z,13.77
2023-05-01T04:02:27.731Z,12.75
2023-05-01T04:04:30.078Z,14.93
2023-05-01T04:06:32.668Z,15.63
2023-05-01T04:08:34.304Z,12.90
2023-05-01T04:10:36.213Z,14.80
2023-05-01T04:12:37.799Z,11.63
2023-05-01T04:14:39.406Z,15.32
2023-05-01T04:16:41.334Z,15.98
2023-05-01T04:18:43.286Z,11.88
2023-05-01T04:20:44.899Z,12.40
2023-05-01T04:22:46.595Z,14.05
2023-05-01T04:24:48.230Z,16.00
2023-05-01T04:26:50.470Z,15.25
2023-05-01T04:28:52.597Z,10.90
2023-05-01T04:30:54.201Z,12.35
2023-05-01T04:32:55.912Z,16.95
2023-05-01T04:34:57.959Z,14.15
2023-05-01T04:36:59.602Z,16.98
2023-05-01T04:39:01.369Z,13.90
2023-05-01T04:41:03.363Z,12.63
2023-05-01T04:43:05.292Z,13.23
2023-05-01T04:45:07.112Z,17.70
2023-05-01T04:47:09.363Z,12.80
2023-05-01T04:49:11.749Z,12.70
2023-05-01T04:51:13.529Z,16.38
2023-05-01T04:53:15.365Z,14.85
2023-05-01T04:55:17.473Z,15.10
2023-05-01T04:57:19.190Z,14.75
2023-05-01T04:59:20.837Z,11.10
2023-05-01T05:01:22.566Z,11.52
2023-05-01T05:03:24.293Z,17.77
2023-05-01T05:05:26.042Z,10.45
2023-05-01T05:07:27.646Z,13.15
2023-05-01T05:09:29.254Z,10.80
2023-05-01T05:11:31.117Z,12.15
2023-05-01T05:13:32.716Z,13.65
2023-05-01T05:15:34.294Z,12.40
2023-05-01T05:17:35.994Z,13.02
2023-05-01T05:19:37.612Z,11.00
2023-05-01T05:21:39.202Z,12.65
2023-05-01T05:23:41.248Z,13.57
2023-05-01T05:25:42.834Z,11.45
2023-05-01T05:27:44.478Z,12.68
2023-05-01T05:29:46.068Z,11.43
2023-05-01T05:31:47.735Z,10.77
2023-05-01T05:33:49.390Z,12.55
2023-05-01T05:35:52.338Z,11.07
2023-05-01T05:37:54.695Z,11.70
2023-05-01T05:39:57.088Z,12.40
2023-05-01T05:41:59.013Z,12.27
2023-05-01T05:44:00.622Z,15.07
2023-05-01T05:46:02.427Z,12.13
2023-05-01T05:48:04.647Z,14.13
2023-05-01T05:50:07.495Z,12.55
2023-05-01T05:52:09.124Z,17.13
2023-05-01T05:54:11.392Z,11.27
2023-05-01T05:56:12.961Z,11.43
2023-05-01T05:58:20.218Z,10.27
2023-05-01T06:00:22.010Z,13.32
2023-05-01T06:02:23.663Z,11.18
2023-05-01T06:04:25.300Z,14.88
2023-05-01T06:06:27.756Z,14.07
2023-05-01T06:08:29.463Z,10.60
2023-05-01T06:10:31.233Z,10.40
2023-05-01T06:12:34.086Z,9.75
2023-05-01T06:14:37.936Z,12.18
2023-05-01T06:16:39.662Z,10.57
2023-05-01T06:18:42.873Z,13.15
2023-05-01T06:20:45.850Z,11.27
2023-05-01T06:22:47.572Z,12.73
2023-05-01T06:24:49.307Z,10.75
2023-05-01T06:26:50.902Z,12.82
2023-05-01T06:28:52.570Z,14.77
2023-05-01T06:30:54.212Z,11.65
2023-05-01T06:32:55.979Z,11.13
2023-05-01T06:34:57.638Z,13.82
2023-05-01T06:36:59.244Z,13.25
2023-05-01T06:39:00.859Z,11.65
2023-05-01T06:41:02.486Z,12.85
2023-05-01T06:43:04.646Z,10.07
2023-05-01T06:45:07.544Z,10.95
2023-05-01T06:47:09.516Z,11.37
2023-05-01T06:49:11.195Z,13.02
2023-05-01T06:53:35.225Z,11.05
2023-05-01T06:55:36.835Z,14.05
2023-05-01T06:57:40.006Z,15.32
2023-05-01T06:59:41.646Z,11.88
2023-05-01T07:01:43.324Z,14.55
2023-05-01T07:03:45.077Z,12.15
2023-05-01T07:05:46.745Z,11.35
2023-05-01T07:07:58.049Z,10.95
2023-05-01T07:10:02.643Z,11.50
2023-05-01T07:12:05.806Z,11.48
2023-05-01T07:14:07.441Z,11.82
2023-05-01T07:16:09.062Z,14.95
2023-05-01T07:18:12.612Z,12.02
2023-05-01T07:22:19.458Z,12.40
2023-05-01T07:24:21.434Z,15.15
2023-05-01T07:26:23.783Z,12.80
2023-05-01T07:28:25.506Z,15.02
2023-05-01T07:30:27.128Z,17.77
2023-05-01T07:32:28.757Z,16.83
2023-05-01T07:34:30.810Z,13.98
2023-05-01T07:36:33.953Z,12.63
2023-05-01T07:38:35.505Z,13.52
2023-05-01T07:40:38.534Z,10.75
2023-05-01T07:42:40.358Z,12.40
2023-05-01T07:44:42.016Z,10.95
2023-05-01T07:46:43.625Z,10.65
2023-05-01T07:48:45.198Z,13.50
2023-05-01T07:50:46.956Z,8.60
2023-05-01T07:52:48.615Z,11.30
2023-05-01T07:54:51.217Z,13.27
2023-05-01T07:56:52.840Z,9.30
2023-05-01T07:58:54.470Z,9.32
2023-05-01T08:00:56.071Z,10.57
2023-05-01T08:02:57.684Z,12.10
2023-05-01T08:04:59.393Z,11.27
2023-05-01T08:07:01.034Z,7.68
2023-05-01T08:09:02.705Z,10.80
2023-05-01T08:11:04.285Z,8.90
2023-05-01T08:13:05.906Z,7.45
2023-05-01T08:15:08.205Z,8.00
2023-05-01T08:17:09.800Z,9.93
2023-05-01T08:19:11.420Z,8.07
2023-05-01T08:21:13.024Z,10.27
2023-05-01T08:23:15.817Z,8.23
2023-05-01T08:25:17.391Z,5.43
2023-05-01T08:27:19.084Z,9.75
2023-05-01T08:29:20.730Z,6.65
2023-05-01T08:31:22.877Z,7.35
2023-05-01T08:33:24.639Z,5.88
2023-05-01T08:35:26.761Z,10.48
2023-05-01T08:37:28.351Z,6.40
2023-05-01T08:39:29.942Z,9.15
2023-05-01T08:41:32.708Z,8.00
2023-05-01T08:43:34.292Z,4.23
2023-05-01T08:45:37.933Z,7.93
2023-05-01T08:47:40.612Z,8.40
2023-05-01T08:49:43.014Z,6.38
2023-05-01T08:51:47.506Z,7.95
2023-05-01T08:53:52.432Z,6.65
2023-05-01T08:55:56.589Z,5.85
2023-05-01T08:57:59.748Z,5.75
2023-05-01T09:00:01.780Z,6.15
2023-05-01T09:02:05.546Z,5.40
2023-05-01T09:04:09.266Z,6.22
2023-05-01T09:06:11.644Z,6.22
2023-05-01T09:08:13.251Z,7.07
2023-05-01T09:10:16.567Z,6.53
2023-05-01T09:12:18.171Z,8.75
2023-05-01T09:14:19.884Z,4.57
2023-05-01T09:16:22.123Z,9.27
2023-05-01T09:18:24.202Z,3.90
2023-05-01T09:20:25.973Z,6.30
2023-05-01T09:22:27.540Z,8.70
2023-05-01T09:24:29.983Z,8.30
2023-05-01T09:26:34.227Z,6.18
2023-05-01T09:28:45.240Z,8.90
2023-05-01T09:30:46.910Z,7.25
2023-05-01T09:33:04.610Z,4.97
2023-05-01T09:35:11.395Z,3.70
2023-05-01T09:37:15.083Z,3.58
2023-05-01T09:41:24.535Z,4.53
2023-05-01T09:43:29.908Z,4.82
2023-05-01T09:45:31.577Z,4.88
2023-05-01T09:47:34.403Z,3.72
2023-05-01T09:49:45.053Z,7.68
2023-05-01T09:51:47.064Z,5.35
2023-05-01T09:53:49.250Z,3.92
2023-05-01T09:56:03.029Z,5.75
2023-05-01T09:58:05.112Z,4.18
2023-05-01T10:00:10.211Z,10.15
2023-05-01T10:02:28.912Z,3.70
2023-05-01T10:04:35.096Z,3.75
2023-05-01T10:06:37.139Z,5.90
2023-05-01T10:08:49.335Z,2.90
2023-05-01T10:11:03.461Z,5.25
2023-05-01T10:13:17.569Z,4.00
2023-05-01T10:15:26.030Z,4.35
2023-05-01T10:17:28.722Z,6.32
2023-05-01T10:19:31.079Z,5.70
2023-05-01T10:21:33.598Z,5.38
2023-05-01T10:23:35.272Z,5.03
2023-05-01T10:25:37.286Z,5.78
2023-05-01T10:27:40.666Z,5.00
2023-05-01T10:29:42.706Z,4.22
2023-05-01T10:31:44.307Z,4.72
2023-05-01T10:33:46.855Z,3.83
2023-05-01T10:35:56.309Z,5.32
2023-05-01T10:38:26.134Z,5.90
2023-05-01T10:40:40.144Z,4.28
2023-05-01T10:43:17.170Z,10.90
2023-05-01T10:45:29.852Z,10.32
2023-05-01T10:47:31.871Z,3.28
2023-05-01T10:50:09.341Z,4.28
2023-05-01T10:52:10.960Z,4.43
2023-05-01T10:54:12.532Z,8.50
2023-05-01T10:56:32.308Z,7.82
2023-05-01T10:58:36.768Z,3.42
2023-05-01T11:00:38.382Z,7.32
2023-05-01T11:02:40.083Z,8.30
2023-05-01T11:04:53.417Z,5.75
2023-05-01T11:07:11.300Z,3.00
2023-05-01T11:09:42.676Z,4.25
2023-05-01T11:11:44.265Z,3.63
2023-05-01T11:14:02.061Z,4.15
2023-05-01T11:16:46.510Z,4.10
2023-05-01T11:18:48.246Z,4.20
2023-05-01T11:20:49.993Z,3.88
2023-05-01T11:22:53.052Z,3.90
2023-05-01T11:24:55.101Z,3.72
2023-05-01T11:27:00.040Z,4.78
2023-05-01T11:29:02.012Z,2.90
2023-05-01T11:31:03.770Z,5.25
2023-05-01T11:33:08.381Z,3.60
2023-05-01T11:35:21.927Z,3.00
2023-05-01T11:37:45.322Z,3.88
2023-05-01T11:39:52.201Z,4.97
2023-05-01T11:42:07.172Z,4.60
2023-05-01T11:44:11.963Z,4.75
2023-05-01T11:46:13.957Z,6.18
2023-05-01T11:48:18.783Z,3.70
2023-05-01T11:50:22.073Z,3.85
2023-05-01T11:52:23.675Z,3.70
2023-05-01T11:54:26.451Z,4.13
2023-05-01T11:56:28.348Z,3.33
2023-05-01T11:58:34.030Z,4.22
2023-05-01T12:00:42.587Z,4.72
2023-05-01T12:03:01.519Z,5.93
2023-05-01T12:05:18.629Z,3.25
2023-05-01T12:07:23.909Z,6.82
2023-05-01T12:09:29.674Z,5.68
2023-05-01T12:11:31.289Z,3.97
2023-05-01T12:13:32.936Z,8.45
2023-05-01T12:15:37.337Z,4.60
2023-05-01T12:17:39.036Z,3.97
2023-05-01T12:19:49.785Z,3.13
2023-05-01T12:22:08.460Z,3.65
2023-05-01T12:24:10.749Z,6.40
2023-05-01T12:26:25.371Z,5.75
2023-05-01T12:28:27.823Z,6.22
2023-05-01T12:30:29.883Z,4.07
2023-05-01T12:32:32.396Z,3.67
2023-05-01T12:34:34.362Z,3.20
2023-05-01T12:36:37.283Z,6.45
2023-05-01T12:38:39.011Z,5.35
2023-05-01T12:40:53.770Z,3.55
2023-05-01T12:42:58.920Z,5.72
2023-05-01T12:45:01.458Z,3.20
2023-05-01T12:47:06.716Z,5.05
2023-05-01T12:49:08.259Z,3.28
2023-05-01T12:51:09.987Z,4.38
2023-05-01T12:53:11.715Z,3.47
2023-05-01T12:55:13.672Z,5.43
2023-05-01T12:57:16.380Z,3.33
2023-05-01T12:59:26.386Z,2.37
2023-05-01T13:01:28.882Z,2.53
2023-05-01T13:03:31.257Z,6.25
2023-05-01T13:05:32.967Z,7.10
2023-05-01T13:07:36.117Z,4.70
2023-05-01T13:09:37.745Z,2.60
2023-05-01T13:11:39.404Z,2.20
2023-05-01T13:13:41.294Z,4.20
2023-05-01T13:15:42.898Z,4.70
2023-05-01T13:17:44.607Z,4.20
2023-05-01T13:19:54.526Z,3.65
2023-05-01T13:21:58.152Z,3.30
2023-05-01T13:24:00.968Z,2.90
2023-05-01T13:26:03.552Z,2.07
2023-05-01T13:28:05.238Z,5.43
2023-05-01T13:30:07.796Z,4.18
2023-05-01T13:32:11.118Z,2.95
2023-05-01T13:34:25.545Z,2.50
2023-05-01T13:36:32.973Z,4.25
2023-05-01T13:38:42.871Z,7.32
2023-05-01T13:40:44.476Z,4.45
2023-05-01T13:42:46.738Z,4.70
2023-05-01T13:44:54.595Z,3.90
2023-05-01T13:46:56.316Z,2.58
2023-05-01T13:48:59.111Z,4.97
2023-05-01T13:51:00.680Z,4.80
2023-05-01T13:53:02.484Z,6.13
2023-05-01T13:55:07.200Z,5.07
2023-05-01T13:57:09.781Z,3.55
2023-05-01T13:59:11.322Z,5.50
2023-05-01T14:01:20.834Z,2.30
2023-05-01T14:03:22.873Z,3.45
2023-05-01T14:05:28.999Z,2.83
2023-05-01T14:07:30.663Z,3.80
2023-05-01T14:09:35.837Z,2.33
2023-05-01T14:11:48.087Z,4.43
2023-05-01T14:13:51.144Z,3.17
2023-05-01T14:15:53.261Z,5.13
2023-05-01T14:17:54.846Z,2.92
2023-05-01T14:19:56.529Z,3.42
2023-05-01T14:21:58.107Z,2.22
2023-05-01T14:24:00.393Z,3.38
2023-05-01T14:26:02.054Z,2.15
2023-05-01T14:28:07.891Z,3.67
2023-05-01T14:30:14.344Z,4.00
2023-05-01T14:32:18.709Z,3.55
2023-05-01T14:34:20.676Z,3.90
2023-05-01T14:36:22.419Z,3.15
2023-05-01T14:38:24.606Z,4.35
2023-05-01T14:40:27.718Z,5.10
2023-05-01T14:42:31.568Z,5.60
2023-05-01T14:44:33.188Z,23.45
2023-05-01T14:46:36.404Z,4.00
2023-05-01T14:48:41.468Z,2.80
2023-05-01T14:50:43.048Z,3.45
2023-05-01T14:52:45.034Z,3.35
2023-05-01T14:54:46.960Z,5.97
2023-05-01T14:56:48.933Z,4.63
2023-05-01T14:58:50.648Z,3.00
2023-05-01T15:00:52.253Z,3.08
2023-05-01T15:02:58.784Z,2.90
2023-05-01T15:05:00.696Z,3.35
2023-05-01T15:07:02.537Z,5.03
2023-05-01T15:09:07.071Z,5.32
2023-05-01T15:11:09.492Z,4.07
2023-05-01T15:13:11.116Z,2.22
2023-05-01T15:15:12.810Z,4.30
2023-05-01T15:17:14.428Z,4.97
2023-05-01T15:19:16.018Z,4.20
2023-05-01T15:21:18.319Z,3.20
2023-05-01T15:23:20.223Z,2.63
2023-05-01T15:25:21.877Z,1.77
2023-05-01T15:27:23.421Z,3.90
2023-05-01T15:29:25.074Z,2.47
2023-05-01T15:31:26.762Z,3.40
2023-05-01T15:33:47.186Z,2.75
2023-05-01T15:35:51.076Z,3.13
2023-05-01T15:37:53.533Z,3.80
2023-05-01T15:39:55.132Z,3.08
2023-05-01T15:41:56.686Z,3.00
2023-05-01T15:43:58.591Z,6.15
2023-05-01T15:46:00.444Z,5.28
2023-05-01T15:48:02.271Z,4.13
2023-05-01T15:50:04.580Z,4.88
2023-05-01T15:52:06.317Z,1.92
2023-05-01T15:54:07.887Z,4.57
2023-05-01T15:56:09.853Z,3.85
2023-05-01T15:58:11.673Z,4.45
2023-05-01T16:00:14.672Z,2.90
2023-05-01T16:02:16.479Z,4.72
2023-05-01T16:04:18.157Z,8.80
2023-05-01T16:06:19.780Z,3.15
2023-05-01T16:08:21.407Z,4.88
2023-05-01T16:10:23.536Z,3.13
2023-05-01T16:12:27.647Z,3.28
2023-05-01T16:14:29.316Z,2.92
2023-05-01T16:16:31.647Z,4.18
2023-05-01T16:18:33.206Z,5.18
2023-05-01T16:20:39.786Z,5.88
2023-05-01T16:22:42.987Z,4.60
2023-05-01T16:24:44.640Z,6.75
2023-05-01T16:26:46.402Z,5.43
2023-05-01T16:28:48.418Z,5.13
2023-05-01T16:30:50.033Z,4.13
2023-05-01T16:32:51.767Z,3.83
2023-05-01T16:34:53.408Z,3.20
2023-05-01T16:36:56.484Z,6.25
2023-05-01T16:38:58.061Z,5.53
2023-05-01T16:40:59.610Z,5.82
2023-05-01T16:43:02.595Z,3.08
2023-05-01T16:45:08.564Z,7.60
2023-05-01T16:47:12.001Z,3.28
2023-05-01T16:49:16.360Z,3.35
2023-05-01T16:51:18.953Z,5.15
2023-05-01T16:53:21.500Z,4.53
2023-05-01T16:55:23.294Z,5.65
2023-05-01T16:57:24.975Z,4.18
2023-05-01T16:59:28.159Z,5.70
2023-05-01T17:01:29.987Z,3.97
2023-05-01T17:03:31.603Z,5.28
2023-05-01T17:05:33.169Z,4.63
2023-05-01T17:07:34.770Z,4.70
2023-05-01T17:09:36.324Z,7.55
2023-05-01T17:11:38.014Z,8.65
2023-05-01T17:13:39.568Z,4.60
2023-05-01T17:15:41.823Z,6.38
2023-05-01T17:17:43.698Z,3.78
2023-05-01T17:19:45.329Z,6.97
2023-05-01T17:21:46.901Z,5.53
2023-05-01T17:23:48.512Z,8.70
2023-05-01T17:25:50.168Z,8.73
2023-05-01T17:27:51.749Z,5.85
2023-05-01T17:29:53.353Z,6.45
2023-05-01T17:31:55.028Z,6.47
2023-05-01T17:33:56.652Z,7.18
2023-05-01T17:36:00.727Z,5.00
2023-05-01T17:38:02.331Z,10.68
2023-05-01T17:40:05.084Z,6.07
2023-05-01T17:42:06.798Z,7.80
2023-05-01T17:44:08.361Z,8.02
2023-05-01T17:46:10.535Z,4.82
2023-05-01T17:48:12.532Z,7.20
2023-05-01T17:50:14.348Z,5.50
2023-05-01T17:52:15.925Z,5.15
2023-05-01T17:54:17.718Z,4.93
2023-05-01T17:56:19.289Z,3.85
2023-05-01T17:58:20.969Z,4.60
2023-05-01T18:00:23.104Z,4.40
2023-05-01T18:02:26.196Z,4.88
2023-05-01T18:04:28.281Z,4.70
2023-05-01T18:06:30.010Z,5.60
2023-05-01T18:08:31.724Z,8.07
2023-05-01T18:10:33.798Z,4.53
2023-05-01T18:12:35.448Z,4.57
2023-05-01T18:14:37.449Z,6.60
2023-05-01T18:16:39.125Z,25.60
2023-05-01T18:18:41.349Z,8.60
2023-05-01T18:20:43.031Z,8.05
2023-05-01T18:22:45.341Z,8.50
2023-05-01T18:24:47.600Z,5.53
2023-05-01T18:26:49.277Z,4.82
2023-05-01T18:28:50.881Z,7.05
2023-05-01T18:30:52.498Z,6.53
2023-05-01T18:32:54.167Z,4.68
2023-05-01T18:34:55.890Z,4.70
2023-05-01T18:36:57.485Z,40.75
2023-05-01T18:38:59.173Z,7.57
2023-05-01T18:41:00.801Z,5.32
2023-05-01T18:43:02.401Z,6.63
2023-05-01T18:45:04.443Z,3.78
2023-05-01T18:47:06.088Z,4.97
2023-05-01T18:49:07.764Z,3.47
2023-05-01T18:51:09.715Z,4.70
2023-05-01T18:53:11.399Z,3.63
2023-05-01T18:55:13.176Z,6.35
2023-05-01T18:57:14.792Z,36.03
2023-05-01T18:59:19.303Z,11.20
2023-05-01T19:01:21.506Z,5.28
2023-05-01T19:03:23.145Z,4.32
2023-05-01T19:05:25.194Z,7.05
2023-05-01T19:07:26.885Z,6.18
2023-05-01T19:09:28.464Z,5.47
2023-05-01T19:11:31.934Z,4.25
2023-05-01T19:13:33.942Z,4.93
2023-05-01T19:15:36.305Z,6.32
2023-05-01T19:17:37.984Z,7.45
2023-05-01T19:19:39.802Z,9.05
2023-05-01T19:21:41.457Z,4.22
2023-05-01T19:23:43.291Z,5.80
2023-05-01T19:25:44.926Z,6.28
2023-05-01T19:27:46.696Z,6.72
2023-05-01T19:29:48.408Z,4.40
2023-05-01T19:31:50.339Z,7.53
2023-05-01T19:33:53.852Z,4.82
2023-05-01T19:35:55.793Z,6.22
2023-05-01T19:37:58.242Z,3.35
2023-05-01T19:40:00.138Z,4.65
2023-05-01T19:42:21.055Z,5.22
2023-05-01T19:44:22.657Z,4.28
2023-05-01T19:46:24.396Z,9.15
2023-05-01T19:48:26.066Z,6.35
2023-05-01T19:50:27.634Z,3.25
2023-05-01T19:52:30.376Z,6.85
2023-05-01T19:54:32.006Z,7.55
2023-05-01T19:56:34.560Z,6.10
2023-05-01T19:58:36.833Z,3.53
2023-05-01T20:00:38.694Z,6.65
2023-05-01T20:02:41.665Z,5.68
2023-05-01T20:04:43.460Z,4.75
2023-05-01T20:06:45.234Z,3.25
2023-05-01T20:08:47.213Z,3.60
2023-05-01T20:10:48.790Z,3.85
2023-05-01T20:12:50.520Z,6.05
2023-05-01T20:14:52.136Z,4.85
2023-05-01T20:16:53.912Z,7.45
2023-05-01T20:18:56.379Z,5.85
2023-05-01T20:20:58.082Z,3.20
2023-05-01T20:23:13.613Z,4.60
2023-05-01T20:25:15.397Z,4.70
2023-05-01T20:27:16.985Z,4.78
2023-05-01T20:29:18.597Z,5.25
2023-05-01T20:31:20.214Z,6.60
2023-05-01T20:33:21.886Z,2.95
2023-05-01T20:35:23.702Z,4.53
2023-05-01T20:37:25.623Z,4.18
2023-05-01T20:39:27.187Z,3.97
2023-05-01T20:41:29.373Z,4.75
2023-05-01T20:43:30.969Z,5.13
2023-05-01T20:45:32.821Z,7.13
2023-05-01T20:47:34.659Z,4.72
2023-05-01T20:49:36.277Z,6.10
2023-05-01T20:51:39.181Z,5.70
2023-05-01T20:53:41.212Z,5.00
2023-05-01T20:55:42.802Z,6.50
2023-05-01T20:57:44.438Z,4.00
2023-05-01T20:59:49.826Z,4.30
2023-05-01T21:01:51.510Z,2.97
2023-05-01T21:03:53.249Z,3.20
2023-05-01T21:05:59.000Z,5.63
2023-05-01T21:08:02.190Z,4.35
2023-05-01T21:10:08.907Z,3.78
2023-05-01T21:12:10.757Z,2.85
2023-05-01T21:14:12.366Z,6.43
2023-05-01T21:16:17.505Z,4.38
2023-05-01T21:18:20.482Z,5.05
2023-05-01T21:20:32.879Z,3.38
2023-05-01T21:22:34.672Z,3.88
2023-05-01T21:24:39.267Z,4.32
2023-05-01T21:26:40.852Z,3.97
2023-05-01T21:28:43.630Z,4.72
2023-05-01T21:30:45.414Z,3.83
2023-05-01T21:32:47.518Z,4.82
2023-05-01T21:34:53.138Z,3.75
2023-05-01T21:36:54.767Z,3.55
2023-05-01T21:38:56.488Z,5.25
2023-05-01T21:40:58.071Z,6.53
2023-05-01T21:43:00.449Z,7.05
2023-05-01T21:45:10.254Z,6.07
2023-05-01T21:47:12.866Z,14.35
2023-05-01T21:49:18.668Z,5.63
2023-05-01T21:51:26.929Z,5.05
2023-05-01T21:53:29.966Z,6.05
2023-05-01T21:55:31.594Z,7.05
2023-05-01T21:57:37.239Z,9.75
2023-05-01T21:59:39.151Z,10.18
2023-05-01T22:01:41.337Z,5.28
2023-05-01T22:03:44.584Z,6.93
2023-05-01T22:05:46.368Z,6.05
2023-05-01T22:07:48.426Z,6.22
2023-05-01T22:09:50.326Z,5.53
2023-05-01T22:11:51.898Z,5.60
2023-05-01T22:13:53.534Z,7.57
2023-05-01T22:15:55.138Z,5.95
2023-05-01T22:17:56.827Z,4.82
2023-05-01T22:19:58.671Z,6.88
2023-05-01T22:22:00.697Z,6.55
2023-05-01T22:24:03.122Z,6.15
2023-05-01T22:26:04.939Z,5.25
2023-05-01T22:28:06.550Z,5.60
2023-05-01T22:30:08.568Z,6.82
2023-05-01T22:32:10.254Z,4.85
2023-05-01T22:34:11.913Z,5.18
2023-05-01T22:36:13.916Z,6.50
2023-05-01T22:38:15.501Z,5.93
2023-05-01T22:40:17.243Z,5.28
2023-05-01T22:42:18.877Z,6.40
2023-05-01T22:44:22.432Z,6.32
2023-05-01T22:46:25.069Z,6.53
2023-05-01T22:48:26.685Z,5.43
2023-05-01T22:50:28.358Z,4.68
2023-05-01T22:52:29.953Z,5.55
2023-05-01T22:54:31.591Z,4.75
2023-05-01T22:56:33.169Z,7.60
2023-05-01T22:58:36.347Z,6.82
2023-05-01T23:00:37.940Z,6.35
2023-05-01T23:02:39.803Z,6.05
2023-05-01T23:04:42.070Z,6.85
2023-05-01T23:06:44.671Z,5.63
2023-05-01T23:08:46.501Z,5.43
2023-05-01T23:10:48.126Z,3.90
2023-05-01T23:12:49.773Z,6.13
2023-05-01T23:14:51.701Z,5.20
2023-05-01T23:16:53.391Z,8.35
2023-05-01T23:18:56.031Z,5.53
2023-05-01T23:20:58.003Z,4.18
2023-05-01T23:22:59.674Z,6.50
2023-05-01T23:25:01.298Z,6.55
2023-05-01T23:27:02.917Z,4.38
2023-05-01T23:29:07.028Z,7.07
2023-05-01T23:31:18.820Z,4.47
2023-05-01T23:33:21.483Z,6.25
2023-05-01T23:35:23.907Z,5.97
2023-05-01T23:37:25.701Z,5.47
2023-05-01T23:39:27.305Z,7.00
2023-05-01T23:41:28.856Z,6.13
2023-05-01T23:43:30.458Z,6.38
2023-05-01T23:45:32.123Z,9.23
2023-05-01T23:47:33.892Z,5.70
2023-05-01T23:49:35.510Z,7.13
2023-05-01T23:51:37.146Z,5.68
2023-05-01T23:53:38.749Z,7.10
2023-05-01T23:55:42.669Z,7.45
2023-05-01T23:57:45.417Z,6.63
2023-05-01T23:59:46.989Z,5.07
